Time;durP1;ratioP1;P1;durP2;ratioP2;P2;SDS_P1;SDS_P2;PMS_P1;PMS_P2;Temp;Humidity;BMP_temperature;BMP_pressure;BME280_temperature;BME280_humidity;BME280_pressure;Samples;Min_cycle;Max_cycle;Signal;HPM_P1;HPM_P2
2022/06/07 00:01:59;;;;;;;2.45;1.88;;;17.50;61.70;;;;;;4920808;29;20464;-84
2022/06/07 00:04:25;;;;;;;2.13;1.90;;;17.60;61.80;;;;;;4919648;29;20032;-83
2022/06/07 00:06:51;;;;;;;2.15;1.92;;;17.50;61.80;;;;;;4950548;28;20079;-84
2022/06/07 00:09:16;;;;;;;2.30;1.98;;;17.50;61.80;;;;;;4919872;29;20070;-84
2022/06/07 00:11:42;;;;;;;2.55;1.92;;;17.50;61.80;;;;;;4936608;29;20429;-84
2022/06/07 00:14:08;;;;;;;2.10;1.90;;;17.50;61.80;;;;;;4919816;29;20064;-84
2022/06/07 00:16:33;;;;;;;3.10;2.40;;;17.50;61.80;;;;;;4920061;29;20027;-84
2022/06/07 00:18:59;;;;;;;2.58;2.10;;;17.50;61.80;;;;;;4919772;29;20174;-84
2022/06/07 00:21:29;;;;;;;3.08;2.40;;;17.50;61.80;;;;;;4935521;29;20032;-83
2022/06/07 00:23:59;;;;;;;2.50;2.10;;;17.50;61.90;;;;;;4936344;29;20031;-84
2022/06/07 00:26:26;;;;;;;3.38;2.58;;;17.50;61.80;;;;;;4935508;29;20390;-84
2022/06/07 00:28:52;;;;;;;2.65;2.15;;;17.50;61.90;;;;;;4935002;29;20038;-83
2022/06/07 00:31:17;;;;;;;3.20;2.30;;;17.50;61.90;;;;;;4919915;29;20380;-83
2022/06/07 00:33:43;;;;;;;3.17;2.47;;;17.50;61.90;;;;;;4935467;29;20032;-84
2022/06/07 00:36:09;;;;;;;3.25;2.45;;;17.50;61.90;;;;;;4935509;29;20035;-83
2022/06/07 00:38:35;;;;;;;3.42;2.60;;;17.40;61.90;;;;;;4951234;29;20042;-84
2022/06/07 00:41:03;;;;;;;3.88;2.80;;;17.50;61.90;;;;;;4935418;29;20031;-83
2022/06/07 00:43:30;;;;;;;3.17;2.47;;;17.50;61.90;;;;;;4936582;29;20372;-84
2022/06/07 00:45:59;;;;;;;4.20;2.85;;;17.50;62.00;;;;;;4935315;29;20066;-84
2022/06/07 00:48:26;;;;;;;3.72;2.78;;;17.50;62.00;;;;;;4935167;29;20035;-84
2022/06/07 00:51:06;;;;;;;4.13;2.97;;;17.40;61.90;;;;;;4920169;29;20024;-84
2022/06/07 00:53:34;;;;;;;3.97;2.90;;;17.40;61.90;;;;;;4935261;29;20038;-84
2022/06/07 00:56:18;;;;;;;4.03;2.90;;;17.50;62.00;;;;;;4922047;29;20054;-84
2022/06/07 00:58:44;;;;;;;4.25;3.17;;;17.50;62.00;;;;;;4919930;29;20039;-84
2022/06/07 01:01:10;;;;;;;3.38;2.88;;;17.50;62.00;;;;;;4919548;29;20465;-84
2022/06/07 01:03:39;;;;;;;4.35;3.33;;;17.40;62.00;;;;;;4920513;29;20050;-84
2022/06/07 01:11:36;;;;;;;3.67;2.90;;;17.40;62.00;;;;;;4922398;29;20039;-83
2022/06/07 01:14:02;;;;;;;4.53;3.28;;;17.40;62.00;;;;;;4935707;29;20087;-84
2022/06/07 01:16:30;;;;;;;5.13;3.40;;;17.40;62.10;;;;;;4919440;29;20031;-84
2022/06/07 01:18:56;;;;;;;4.18;3.45;;;17.40;62.10;;;;;;4921949;29;20047;-83
2022/06/07 01:21:30;;;;;;;4.38;3.35;;;17.40;62.10;;;;;;4954735;29;20027;-82
2022/06/07 01:23:57;;;;;;;4.28;3.53;;;17.40;62.10;;;;;;4938907;29;20082;-82
2022/06/07 01:26:27;;;;;;;5.10;3.83;;;17.40;62.10;;;;;;4922898;29;20048;-82
2022/06/07 01:28:54;;;;;;;5.20;3.60;;;17.40;62.10;;;;;;4906780;29;20042;-81
2022/06/07 01:31:20;;;;;;;6.18;3.80;;;17.40;62.10;;;;;;4922672;29;20020;-79
2022/06/07 01:33:46;;;;;;;5.97;3.70;;;17.40;62.10;;;;;;4938156;29;20110;-83
2022/06/07 01:36:15;;;;;;;4.95;3.92;;;17.40;62.10;;;;;;4922522;29;20034;-82
2022/06/07 01:38:44;;;;;;;4.63;3.70;;;17.40;62.20;;;;;;4938265;29;20461;-82
2022/06/07 01:43:58;;;;;;;4.75;3.55;;;17.40;62.20;;;;;;4924964;29;20027;-83
2022/06/07 01:46:24;;;;;;;5.55;4.00;;;17.40;62.10;;;;;;4938012;29;20027;-82
2022/06/07 01:48:50;;;;;;;4.82;3.55;;;17.40;62.20;;;;;;4938221;29;20043;-82
2022/06/07 01:51:17;;;;;;;4.95;3.83;;;17.40;62.20;;;;;;4938498;29;20341;-83
2022/06/07 01:53:44;;;;;;;5.05;3.78;;;17.40;62.20;;;;;;4937639;29;20028;-82
2022/06/07 01:56:15;;;;;;;5.53;4.38;;;17.40;62.20;;;;;;4921994;29;20078;-82
2022/06/07 01:58:43;;;;;;;5.30;3.95;;;17.40;62.20;;;;;;4921970;29;20057;-82
2022/06/07 02:01:12;;;;;;;5.05;4.03;;;17.40;62.20;;;;;;4937786;29;20028;-82
2022/06/07 02:03:38;;;;;;;5.13;4.03;;;17.40;62.20;;;;;;4937252;29;20023;-82
2022/06/07 02:06:07;;;;;;;5.13;4.07;;;17.40;62.20;;;;;;4922893;29;20465;-83
2022/06/07 02:08:36;;;;;;;5.60;4.60;;;17.40;62.20;;;;;;4938299;29;20346;-83
2022/06/07 02:11:16;;;;;;;5.57;4.50;;;17.40;62.20;;;;;;4922675;29;20337;-83
2022/06/07 02:13:46;;;;;;;6.25;4.40;;;17.40;62.20;;;;;;4938303;29;20028;-81
2022/06/07 02:16:13;;;;;;;6.32;4.60;;;17.40;62.20;;;;;;4938613;29;20626;-83
2022/06/07 02:18:39;;;;;;;6.07;4.65;;;17.40;62.20;;;;;;4953542;28;20120;-82
2022/06/07 02:21:18;;;;;;;5.90;4.57;;;17.30;62.20;;;;;;4938708;29;20111;-82
2022/06/07 02:23:45;;;;;;;5.35;4.47;;;17.40;62.20;;;;;;4921920;29;20492;-82
2022/06/07 02:26:18;;;;;;;6.93;4.72;;;17.40;62.20;;;;;;4921454;29;20056;-82
2022/06/07 02:28:49;;;;;;;6.07;4.85;;;17.40;62.30;;;;;;4938189;29;20039;-82
2022/06/07 02:31:16;;;;;;;6.43;5.10;;;17.40;63.00;;;;;;4937586;29;20023;-82
2022/06/07 02:33:44;;;;;;;5.68;4.57;;;17.40;62.30;;;;;;4921394;29;20023;-82
2022/06/07 02:36:11;;;;;;;6.47;5.07;;;17.30;62.20;;;;;;4937127;29;20028;-82
2022/06/07 02:38:38;;;;;;;6.63;5.15;;;17.30;62.20;;;;;;4936952;29;20043;-83
2022/06/07 02:41:07;;;;;;;6.20;4.65;;;17.40;62.30;;;;;;4920798;29;20038;-82
2022/06/07 02:43:33;;;;;;;5.75;4.78;;;17.40;62.30;;;;;;4936654;29;20111;-82
2022/06/07 02:45:59;;;;;;;6.50;5.05;;;17.40;62.30;;;;;;4935966;29;20067;-83
2022/06/07 02:48:24;;;;;;;6.65;5.45;;;17.40;62.20;;;;;;4921195;29;20071;-82
2022/06/07 02:50:54;;;;;;;6.03;4.65;;;17.30;62.20;;;;;;4921398;29;20113;-83
2022/06/07 02:53:20;;;;;;;6.32;4.70;;;17.40;62.30;;;;;;4921367;29;20122;-82
2022/06/07 02:55:46;;;;;;;7.03;5.63;;;17.30;62.20;;;;;;4905492;29;20088;-82
2022/06/07 02:58:18;;;;;;;6.57;5.13;;;17.40;62.30;;;;;;4921929;29;20465;-83
2022/06/07 03:00:45;;;;;;;6.80;5.22;;;17.40;62.30;;;;;;4920485;29;20034;-82
2022/06/07 03:03:11;;;;;;;6.05;4.88;;;17.30;62.20;;;;;;4936578;29;20079;-80
2022/06/07 03:05:40;;;;;;;6.18;4.97;;;17.30;62.20;;;;;;4936509;29;20027;-82
2022/06/07 03:08:07;;;;;;;6.40;5.25;;;17.30;62.20;;;;;;4920422;29;20127;-82
2022/06/07 03:10:34;;;;;;;6.30;5.18;;;17.40;62.30;;;;;;4920743;29;20019;-82
2022/06/07 03:13:02;;;;;;;7.03;5.28;;;17.30;62.30;;;;;;4905625;29;20028;-82
2022/06/07 03:15:28;;;;;;;6.90;5.28;;;17.30;62.30;;;;;;4920543;29;20034;-82
2022/06/07 03:17:56;;;;;;;6.18;5.25;;;17.30;62.30;;;;;;4920668;29;20048;-82
2022/06/07 03:20:30;;;;;;;6.43;5.40;;;17.30;62.20;;;;;;4936443;29;20483;-82
2022/06/07 03:22:56;;;;;;;6.40;5.22;;;17.30;62.20;;;;;;4920348;29;20131;-83
2022/06/07 03:25:24;;;;;;;6.00;4.93;;;17.30;62.30;;;;;;4920586;29;20445;-82
2022/06/07 03:27:56;;;;;;;6.43;5.30;;;17.30;62.30;;;;;;4920847;29;20040;-82
2022/06/07 03:30:22;;;;;;;6.82;5.47;;;17.30;62.20;;;;;;4920434;29;20039;-83
2022/06/07 03:32:49;;;;;;;5.57;4.90;;;17.30;62.30;;;;;;4935632;29;20055;-83
2022/06/07 03:35:16;;;;;;;6.47;5.50;;;17.30;62.30;;;;;;4904971;29;20031;-83
2022/06/07 03:37:42;;;;;;;6.55;5.35;;;17.30;62.30;;;;;;4904992;29;20039;-83
2022/06/07 03:40:11;;;;;;;5.85;5.00;;;17.30;62.40;;;;;;4936219;29;20035;-83
2022/06/07 03:42:38;;;;;;;6.78;4.93;;;17.30;62.40;;;;;;4935872;29;20476;-83
2022/06/07 03:45:05;;;;;;;6.95;5.30;;;17.40;62.40;;;;;;4936938;29;20079;-83
2022/06/07 03:47:32;;;;;;;6.93;5.78;;;17.30;62.40;;;;;;4936757;29;20027;-83
2022/06/07 03:49:58;;;;;;;6.05;5.13;;;17.30;62.40;;;;;;4937127;29;20342;-83
2022/06/07 03:52:27;;;;;;;6.03;4.93;;;17.30;62.40;;;;;;4922926;29;20038;-84
2022/06/07 03:54:53;;;;;;;6.63;5.38;;;17.30;62.40;;;;;;4940640;29;20028;-83
2022/06/07 03:57:22;;;;;;;6.55;5.53;;;17.30;62.40;;;;;;4927723;29;20118;-83
2022/06/07 03:59:51;;;;;;;6.57;5.30;;;17.30;62.40;;;;;;4934243;29;20027;-82
2022/06/07 04:02:17;;;;;;;5.97;5.13;;;17.30;62.40;;;;;;4936703;29;20036;-83
2022/06/07 04:04:43;;;;;;;5.82;4.85;;;17.30;62.40;;;;;;4930072;29;20024;-83
2022/06/07 04:09:58;;;;;;;5.85;4.78;;;17.30;62.40;;;;;;4953540;29;20039;-83
2022/06/07 04:12:33;;;;;;;6.68;5.38;;;17.30;62.40;;;;;;4936498;29;20023;-83
2022/06/07 04:14:58;;;;;;;6.55;5.45;;;17.30;62.40;;;;;;4920268;29;20083;-83
2022/06/07 04:17:25;;;;;;;6.45;5.50;;;17.30;62.50;;;;;;4919975;29;20023;-83
2022/06/07 04:19:58;;;;;;;6.22;5.25;;;17.30;62.50;;;;;;4952657;29;20036;-83
2022/06/07 04:22:24;;;;;;;7.57;5.75;;;17.30;62.50;;;;;;4920088;29;20083;-83
2022/06/07 04:25:05;;;;;;;6.43;5.40;;;17.30;62.50;;;;;;4952238;29;20369;-84
2022/06/07 04:27:35;;;;;;;6.47;5.47;;;17.30;62.50;;;;;;4951448;28;20102;-84
2022/06/07 04:30:00;;;;;;;6.57;5.35;;;17.30;62.50;;;;;;4936041;29;20032;-83
2022/06/07 04:32:26;;;;;;;7.43;6.00;;;17.30;62.50;;;;;;4935343;29;20480;-82
2022/06/07 04:34:53;;;;;;;7.03;5.53;;;17.30;62.50;;;;;;4904174;29;20099;-82
2022/06/07 04:37:21;;;;;;;6.88;5.75;;;17.30;62.60;;;;;;4935443;29;20034;-81
2022/06/07 04:39:50;;;;;;;6.45;5.53;;;17.30;62.60;;;;;;4951142;28;20020;-82
2022/06/07 04:42:16;;;;;;;6.60;5.72;;;17.30;62.60;;;;;;4919216;29;20075;-84
2022/06/07 04:44:54;;;;;;;5.85;4.88;;;17.30;62.60;;;;;;4921265;29;20040;-81
2022/06/07 04:47:28;;;;;;;7.75;5.72;;;17.30;62.60;;;;;;4935389;29;20059;-85
2022/06/07 04:49:54;;;;;;;6.82;5.85;;;17.30;62.60;;;;;;4919635;29;20040;-81
2022/06/07 04:52:20;;;;;;;7.13;5.88;;;17.30;62.60;;;;;;4919836;29;20020;-82
2022/06/07 04:54:46;;;;;;;6.30;4.97;;;17.30;62.60;;;;;;4922552;29;20028;-82
2022/06/07 04:57:12;;;;;;;6.40;5.30;;;17.30;62.60;;;;;;4906816;29;20078;-82
2022/06/07 04:59:42;;;;;;;6.97;5.95;;;17.30;62.70;;;;;;4954420;28;20485;-83
2022/06/07 05:02:08;;;;;;;6.28;5.43;;;17.30;62.70;;;;;;4938957;29;20063;-82
2022/06/07 05:04:35;;;;;;;7.90;5.47;;;17.30;62.70;;;;;;4938680;29;20050;-82
2022/06/07 05:07:13;;;;;;;6.45;5.13;;;17.30;62.70;;;;;;4924840;29;20030;-82
2022/06/07 05:10:07;;;;;;;6.30;4.70;;;17.30;62.70;;;;;;4939743;29;20120;-82
2022/06/07 05:12:39;;;;;;;5.60;5.00;;;17.30;62.60;;;;;;4938327;29;20023;-84
2022/06/07 05:15:06;;;;;;;6.45;5.63;;;17.30;62.60;;;;;;4922514;29;20032;-82
2022/06/07 05:17:39;;;;;;;6.35;5.03;;;17.30;62.70;;;;;;4923794;29;20035;-82
2022/06/07 05:20:07;;;;;;;6.55;5.40;;;17.30;62.70;;;;;;4954207;29;20036;-83
2022/06/07 05:22:33;;;;;;;6.15;5.22;;;17.30;62.70;;;;;;4922970;29;20087;-85
2022/06/07 05:25:00;;;;;;;6.85;5.13;;;17.30;62.70;;;;;;4923542;29;20405;-86
2022/06/07 05:27:44;;;;;;;6.90;5.60;;;17.30;62.80;;;;;;4923671;29;20048;-86
2022/06/07 05:30:18;;;;;;;6.32;5.20;;;17.30;62.90;;;;;;4939730;29;20027;-84
2022/06/07 05:32:46;;;;;;;6.25;5.13;;;17.30;62.80;;;;;;4939285;29;20035;-85
2022/06/07 05:35:18;;;;;;;6.22;5.43;;;17.30;62.80;;;;;;4924420;29;20088;-88
2022/06/07 05:37:56;;;;;;;6.97;5.00;;;17.30;62.80;;;;;;4924892;29;20059;-83
2022/06/07 05:40:25;;;;;;;6.78;5.20;;;17.30;62.80;;;;;;4938582;29;20036;-83
2022/06/07 05:42:51;;;;;;;6.10;5.28;;;17.30;62.80;;;;;;4908031;29;20437;-83
2022/06/07 05:45:27;;;;;;;6.70;5.43;;;17.30;62.90;;;;;;4939012;29;20032;-84
2022/06/07 05:47:53;;;;;;;6.40;5.05;;;17.30;62.80;;;;;;4923840;29;20036;-84
2022/06/07 05:50:19;;;;;;;7.57;5.32;;;17.30;62.80;;;;;;4922138;29;20028;-85
2022/06/07 05:52:51;;;;;;;6.85;5.28;;;17.40;62.90;;;;;;4922788;29;20031;-84
2022/06/07 05:55:17;;;;;;;6.72;5.57;;;17.40;62.90;;;;;;4937954;29;20083;-84
2022/06/07 05:57:49;;;;;;;6.55;5.07;;;17.40;62.90;;;;;;4938907;29;20071;-84
2022/06/07 06:00:19;;;;;;;5.82;4.82;;;17.40;62.90;;;;;;4923730;29;20032;-83
2022/06/07 06:02:51;;;;;;;6.07;5.10;;;17.40;63.00;;;;;;4923006;29;20031;-83
2022/06/07 06:05:29;;;;;;;6.38;5.50;;;17.40;62.90;;;;;;4938994;29;20039;-83
2022/06/07 06:10:42;;;;;;;6.03;5.18;;;17.40;62.90;;;;;;4954028;29;20039;-84
2022/06/07 06:13:08;;;;;;;5.97;5.25;;;17.40;62.90;;;;;;4922662;29;20039;-83
2022/06/07 06:15:36;;;;;;;6.47;5.10;;;17.40;63.00;;;;;;4923425;29;20028;-84
2022/06/07 06:18:05;;;;;;;6.78;5.28;;;17.40;63.10;;;;;;4953992;28;20122;-83
2022/06/07 06:20:38;;;;;;;5.60;4.85;;;17.40;63.00;;;;;;4938219;29;20039;-84
2022/06/07 06:23:13;;;;;;;;;;;17.40;63.00;;;;;;4939273;29;20035;-92
2022/06/07 06:25:41;;;;;;;5.20;4.15;;;17.40;62.90;;;;;;4954131;29;20300;-85
2022/06/07 06:28:07;;;;;;;5.85;4.97;;;17.40;62.80;;;;;;4954868;28;20102;-90
2022/06/07 06:30:34;;;;;;;7.18;4.78;;;17.40;62.90;;;;;;4908214;29;20223;-87
2022/06/07 06:33:08;;;;;;;6.18;4.95;;;17.40;63.00;;;;;;4924791;29;20368;-87
2022/06/07 06:35:34;;;;;;;5.93;4.93;;;17.50;63.10;;;;;;4922136;29;20028;-87
2022/06/07 06:38:01;;;;;;;5.90;5.00;;;17.50;63.10;;;;;;4922834;29;20131;-86
2022/06/07 06:40:27;;;;;;;6.15;5.20;;;17.50;63.80;;;;;;4922067;29;20028;-86
2022/06/07 06:42:58;;;;;;;6.85;5.43;;;17.50;63.20;;;;;;4923891;29;20083;-92
2022/06/07 06:45:34;;;;;;;6.53;4.88;;;17.50;63.10;;;;;;4954886;29;20036;-87
2022/06/07 06:48:08;;;;;;;6.47;5.00;;;17.50;63.10;;;;;;4954764;29;20043;-90
2022/06/07 06:50:36;;;;;;;6.57;5.05;;;17.50;63.20;;;;;;4937761;29;20031;-83
2022/06/07 06:53:02;;;;;;;5.85;5.18;;;17.50;63.10;;;;;;4937420;29;20024;-87
2022/06/07 06:55:29;;;;;;;5.63;5.03;;;17.50;63.10;;;;;;4922029;29;20055;-84
2022/06/07 06:57:55;;;;;;;6.07;5.10;;;17.60;63.20;;;;;;4953999;28;20123;-83
2022/06/07 07:00:22;;;;;;;6.53;5.18;;;17.60;63.20;;;;;;4922648;29;20027;-85
2022/06/07 07:02:49;;;;;;;6.35;5.00;;;17.60;63.20;;;;;;4922015;29;20059;-88
2022/06/07 07:05:17;;;;;;;6.10;4.70;;;17.60;63.20;;;;;;4921949;29;20463;-83
2022/06/07 07:07:48;;;;;;;5.20;4.53;;;17.70;63.30;;;;;;4922917;29;20030;-85
2022/06/07 07:10:22;;;;;;;6.20;5.28;;;17.60;63.20;;;;;;4907844;29;20397;-85
2022/06/07 07:12:49;;;;;;;5.30;4.35;;;17.70;63.20;;;;;;4921582;29;20054;-86
2022/06/07 07:15:19;;;;;;;5.55;4.75;;;17.70;63.20;;;;;;4922394;29;20031;-86
2022/06/07 07:17:56;;;;;;;6.20;5.28;;;17.70;63.20;;;;;;4937496;29;20043;-84
2022/06/07 07:20:24;;;;;;;5.85;4.78;;;17.70;63.20;;;;;;4936622;29;20038;-84
2022/06/07 07:22:51;;;;;;;6.28;5.10;;;17.80;63.20;;;;;;4921196;29;20028;-84
2022/06/07 07:25:19;;;;;;;6.60;5.63;;;17.80;63.20;;;;;;4921294;29;20047;-85
2022/06/07 07:27:46;;;;;;;6.35;5.28;;;17.80;63.20;;;;;;4938123;29;20066;-88
2022/06/07 07:30:14;;;;;;;6.05;5.03;;;17.80;63.20;;;;;;4937376;29;20043;-86
2022/06/07 07:32:41;;;;;;;7.05;5.68;;;17.90;63.30;;;;;;4921371;29;20059;-88
2022/06/07 07:35:08;;;;;;;5.72;5.13;;;17.90;63.20;;;;;;4921577;29;20042;-85
2022/06/07 07:37:44;;;;;;;6.80;5.47;;;17.90;63.20;;;;;;4922307;29;20078;-86
2022/06/07 07:40:13;;;;;;;6.88;5.45;;;18.00;63.20;;;;;;4952041;29;20071;-85
2022/06/07 07:42:41;;;;;;;6.45;5.35;;;18.00;63.20;;;;;;4937028;29;20083;-86
2022/06/07 07:45:12;;;;;;;6.32;5.43;;;18.00;63.20;;;;;;4920796;29;20141;-83
2022/06/07 07:47:40;;;;;;;6.60;5.28;;;18.00;63.10;;;;;;4920865;29;20135;-86
2022/06/07 07:50:07;;;;;;;5.72;5.07;;;18.00;63.10;;;;;;4921153;29;20349;-85
2022/06/07 07:52:35;;;;;;;6.35;5.13;;;18.10;63.10;;;;;;4937854;29;20063;-88
2022/06/07 07:55:07;;;;;;;6.03;4.90;;;18.10;63.10;;;;;;4922909;29;20058;-86
2022/06/07 07:57:34;;;;;;;6.63;5.50;;;18.10;63.10;;;;;;4906466;29;20036;-89
2022/06/07 08:00:00;;;;;;;6.72;5.60;;;18.20;63.10;;;;;;4923551;29;20027;-85
2022/06/07 08:02:26;;;;;;;6.20;4.97;;;18.20;63.00;;;;;;4938245;29;20055;-85
2022/06/07 08:05:08;;;;;;;6.32;5.38;;;18.20;63.00;;;;;;4910854;29;20138;-87
2022/06/07 08:07:35;;;;;;;6.43;5.50;;;18.30;63.00;;;;;;4939320;29;20032;-85
2022/06/07 08:10:03;;;;;;;6.18;5.22;;;18.30;63.00;;;;;;4939093;29;20131;-84
2022/06/07 08:12:29;;;;;;;6.03;5.22;;;18.30;63.00;;;;;;4940792;29;20024;-84
2022/06/07 08:14:55;;;;;;;5.90;5.13;;;18.40;63.00;;;;;;4937938;29;20039;-85
2022/06/07 08:17:21;;;;;;;6.18;5.22;;;18.40;63.00;;;;;;4938050;29;20071;-86
2022/06/07 08:19:47;;;;;;;6.32;5.40;;;18.40;62.90;;;;;;4924319;29;20040;-84
2022/06/07 08:22:13;;;;;;;6.22;5.20;;;18.50;62.90;;;;;;4941468;29;20032;-87
2022/06/07 08:24:39;;;;;;;5.40;4.65;;;18.50;62.90;;;;;;4944285;29;20368;-84
2022/06/07 08:27:05;;;;;;;6.20;5.13;;;18.50;63.40;;;;;;4947392;29;20054;-83
2022/06/07 08:29:30;;;;;;;5.78;4.85;;;18.60;62.80;;;;;;4953171;29;20027;-85
2022/06/07 08:31:56;;;;;;;6.22;5.22;;;18.60;62.70;;;;;;4957860;29;20027;-85
2022/06/07 08:39:51;;;;;;;6.30;5.07;;;18.70;63.20;;;;;;4930098;29;20059;-86
2022/06/07 08:42:31;;;;;;;5.82;4.78;;;18.80;62.50;;;;;;4926709;29;20040;-86
2022/06/07 08:45:23;;;;;;;6.32;4.93;;;18.80;62.60;;;;;;4925499;29;20032;-85
2022/06/07 08:47:56;;;;;;;6.00;4.57;;;18.90;62.60;;;;;;4941126;29;20055;-82
2022/06/07 08:50:29;;;;;;;6.00;4.88;;;18.90;62.50;;;;;;4942465;29;20024;-84
2022/06/07 08:53:11;;;;;;;5.47;4.72;;;18.90;62.50;;;;;;4942049;29;20027;-83
2022/06/07 08:55:48;;;;;;;5.97;4.88;;;19.00;62.50;;;;;;4942382;29;20023;-85
2022/06/07 08:58:18;;;;;;;6.53;5.35;;;19.00;62.40;;;;;;4934717;29;20043;-83
2022/06/07 09:00:53;;;;;;;5.70;4.60;;;19.00;62.30;;;;;;4942587;29;20038;-83
2022/06/07 09:03:34;;;;;;;6.35;5.15;;;19.00;62.30;;;;;;4925591;29;20083;-85
2022/06/07 09:06:03;;;;;;;7.10;4.75;;;19.10;62.40;;;;;;4957501;29;20028;-84
2022/06/07 09:08:42;;;;;;;6.20;5.13;;;19.10;62.20;;;;;;4941900;29;20114;-88
2022/06/07 09:14:05;;;;;;;;;;;19.10;62.20;;;;;;4942253;29;20121;-84
2022/06/07 09:16:42;;;;;;;5.40;4.47;;;19.20;61.90;;;;;;4939939;29;19915;-83
2022/06/07 09:19:18;;;;;;;6.05;4.65;;;19.20;62.00;;;;;;4941200;29;20063;-85
2022/06/07 09:21:45;;;;;;;5.63;4.55;;;19.20;62.10;;;;;;4941503;29;20042;-83
2022/06/07 09:24:53;;;;;;;6.47;5.10;;;19.30;62.00;;;;;;4941753;29;20091;-83
2022/06/07 09:27:26;;;;;;;5.70;4.63;;;19.30;62.10;;;;;;4933814;29;20054;-85
2022/06/07 09:29:57;;;;;;;6.68;4.75;;;19.30;61.90;;;;;;4941065;29;20070;-84
2022/06/07 09:32:31;;;;;;;6.75;5.50;;;19.30;61.90;;;;;;4942054;29;20074;-86
2022/06/07 09:35:09;;;;;;;6.30;5.28;;;19.40;62.60;;;;;;4942062;29;20079;-84
2022/06/07 09:37:58;;;;;;;6.70;5.57;;;19.30;61.90;;;;;;4924651;29;20027;-84
2022/06/07 09:40:32;;;;;;;6.30;5.43;;;19.40;62.10;;;;;;4940580;29;20043;-84
2022/06/07 09:42:58;;;;;;;5.90;5.18;;;19.40;61.90;;;;;;4941776;29;20083;-84
2022/06/07 09:45:43;;;;;;;6.43;5.57;;;19.50;61.90;;;;;;4956209;29;20028;-88
2022/06/07 09:48:37;;;;;;;6.47;5.40;;;19.50;62.00;;;;;;4956008;29;20368;-84
2022/06/07 09:51:09;;;;;;;5.88;4.97;;;19.50;62.00;;;;;;4939950;29;20032;-84
2022/06/07 09:53:38;;;;;;;6.72;6.03;;;19.50;61.80;;;;;;4939881;29;20028;-86
2022/06/07 09:56:16;;;;;;;6.80;5.72;;;19.50;61.80;;;;;;4939797;29;20036;-83
2022/06/07 09:58:57;;;;;;;7.15;5.72;;;19.60;61.90;;;;;;4943636;29;20040;-84
2022/06/07 10:01:32;;;;;;;7.07;5.47;;;19.60;61.90;;;;;;4943916;29;20063;-83
2022/06/07 10:04:13;;;;;;;7.13;5.80;;;19.60;61.80;;;;;;4940702;29;20030;-82
2022/06/07 10:06:47;;;;;;;6.97;5.95;;;19.60;61.90;;;;;;4956778;29;20102;-84
2022/06/07 10:09:22;;;;;;;6.88;5.97;;;19.60;61.80;;;;;;4940637;29;20031;-84
2022/06/07 10:12:30;;;;;;;7.80;6.10;;;19.60;61.80;;;;;;4938754;29;20027;-83
2022/06/07 10:15:20;;;;;;;5.95;5.22;;;19.60;61.90;;;;;;4939458;29;20071;-83
2022/06/07 10:18:03;;;;;;;6.80;5.57;;;19.70;61.80;;;;;;4939963;29;20028;-82
2022/06/07 10:20:58;;;;;;;6.85;5.43;;;19.70;61.90;;;;;;4940454;29;20044;-81
2022/06/07 10:23:29;;;;;;;6.67;5.40;;;19.70;61.80;;;;;;4939329;29;20149;-82
2022/06/07 10:26:18;;;;;;;6.35;5.20;;;19.70;61.70;;;;;;4938629;29;20048;-83
2022/06/07 10:29:23;;;;;;;6.72;5.78;;;19.70;61.80;;;;;;4939902;29;20032;-85
2022/06/07 10:31:49;;;;;;;6.43;5.28;;;19.70;61.80;;;;;;4924413;29;20118;-82
2022/06/07 10:34:34;;;;;;;6.68;5.40;;;19.80;61.60;;;;;;4954884;29;20496;-81
2022/06/07 10:37:18;;;;;;;6.00;5.00;;;19.80;61.70;;;;;;4922868;29;20019;-81
2022/06/07 10:40:00;;;;;;;6.13;5.00;;;19.80;61.70;;;;;;4954031;29;20063;-83
2022/06/07 10:42:38;;;;;;;6.40;5.38;;;19.80;62.20;;;;;;4955053;29;20024;-81
2022/06/07 10:45:22;;;;;;;6.90;5.60;;;19.90;61.70;;;;;;4922836;29;20043;-83
2022/06/07 10:48:03;;;;;;;5.80;4.97;;;19.90;61.70;;;;;;4936947;29;20083;-82
2022/06/07 10:50:31;;;;;;;6.15;5.10;;;19.90;61.70;;;;;;4936192;29;20035;-83
2022/06/07 10:53:12;;;;;;;6.80;5.38;;;19.90;61.60;;;;;;4939242;29;20024;-83
2022/06/07 10:55:47;;;;;;;6.75;5.50;;;20.00;61.60;;;;;;4937599;29;20028;-81
2022/06/07 10:58:31;;;;;;;6.63;5.20;;;20.00;61.60;;;;;;4922749;29;20036;-81
2022/06/07 11:01:16;;;;;;;6.13;5.22;;;20.00;61.60;;;;;;4937557;29;20111;-80
2022/06/07 11:09:19;;;;;;;6.53;5.22;;;20.00;61.60;;;;;;4937438;29;20039;-80
2022/06/07 11:09:51;;;;;;;6.45;5.38;;;20.10;61.40;;;;;;4938697;29;20446;-80
2022/06/07 11:12:22;;;;;;;6.05;5.00;;;20.10;61.40;;;;;;4953889;28;20055;-80
2022/06/07 11:15:12;;;;;;;5.88;5.22;;;20.10;61.50;;;;;;4953072;29;20051;-80
2022/06/07 11:17:45;;;;;;;5.47;4.80;;;20.10;61.40;;;;;;4936618;29;20153;-81
2022/06/07 11:20:16;;;;;;;6.95;5.13;;;20.10;61.50;;;;;;4953664;29;20384;-80
2022/06/07 11:23:02;;;;;;;6.97;5.53;;;20.10;61.40;;;;;;4937671;29;20376;-80
2022/06/07 11:25:57;;;;;;;7.10;5.90;;;20.20;61.50;;;;;;4952728;29;20520;-79
2022/06/07 11:28:30;;;;;;;5.90;4.97;;;20.20;61.40;;;;;;4953695;29;20089;-80
2022/06/07 11:31:02;;;;;;;7.15;5.43;;;20.30;61.30;;;;;;4937203;29;20267;-82
2022/06/07 11:33:57;;;;;;;6.55;5.50;;;20.30;61.30;;;;;;4939385;29;20028;-82
2022/06/07 11:36:40;;;;;;;5.90;5.30;;;20.30;61.30;;;;;;4938888;29;20369;-80
2022/06/07 11:39:29;;;;;;;6.07;5.15;;;20.30;61.30;;;;;;4937300;29;20063;-82
2022/06/07 11:42:21;;;;;;;5.30;4.65;;;20.40;61.30;;;;;;4937711;29;20038;-82
2022/06/07 11:45:03;;;;;;;6.45;4.82;;;20.40;61.30;;;;;;4929368;29;20496;-82
2022/06/07 11:48:03;;;;;;;5.65;4.78;;;20.40;61.20;;;;;;4953252;29;20051;-82
2022/06/07 11:50:54;;;;;;;5.80;4.90;;;20.50;61.30;;;;;;4938644;29;20060;-83
2022/06/07 11:53:19;;;;;;;5.53;4.82;;;20.50;61.20;;;;;;4937716;29;20471;-84
2022/06/07 11:55:48;;;;;;;6.13;5.13;;;20.50;61.10;;;;;;4937500;29;20027;-83
2022/06/07 11:58:13;;;;;;;6.03;5.13;;;20.60;61.10;;;;;;4939247;29;20036;-82
2022/06/07 12:00:48;;;;;;;6.72;5.55;;;20.60;61.00;;;;;;4936858;29;20027;-82
2022/06/07 12:03:30;;;;;;;5.78;4.88;;;20.70;61.10;;;;;;4921163;29;20035;-82
2022/06/07 12:06:17;;;;;;;5.68;4.95;;;20.70;61.10;;;;;;4937642;29;20035;-82
2022/06/07 12:08:56;;;;;;;5.57;4.45;;;20.80;61.00;;;;;;4937585;29;20059;-83
2022/06/07 12:11:43;;;;;;;7.00;5.38;;;20.80;61.00;;;;;;4937494;29;20028;-83
2022/06/07 12:14:34;;;;;;;5.63;4.90;;;20.90;61.00;;;;;;4936930;29;20027;-82
2022/06/07 12:17:03;;;;;;;6.55;5.00;;;20.90;61.00;;;;;;4937359;29;20080;-82
2022/06/07 12:19:32;;;;;;;5.15;4.45;;;20.90;60.80;;;;;;4920530;29;20063;-80
2022/06/07 12:22:07;;;;;;;5.18;4.32;;;21.00;60.80;;;;;;4937576;29;20024;-81
2022/06/07 12:24:53;;;;;;;5.43;4.80;;;21.00;60.80;;;;;;4937802;29;20039;-81
2022/06/07 12:27:48;;;;;;;5.32;4.55;;;21.10;60.80;;;;;;4952215;29;20063;-81
2022/06/07 12:30:27;;;;;;;5.37;4.70;;;21.10;60.80;;;;;;4937311;29;20040;-81
2022/06/07 12:32:54;;;;;;;4.72;3.90;;;21.20;60.80;;;;;;4938686;29;20024;-81
2022/06/07 12:35:22;;;;;;;5.60;4.88;;;21.20;60.60;;;;;;4937442;29;20028;-81
2022/06/07 12:37:52;;;;;;;6.15;4.80;;;21.20;60.60;;;;;;4937964;29;20024;-81
2022/06/07 12:40:32;;;;;;;5.97;4.93;;;21.30;60.70;;;;;;4937326;29;20439;-81
2022/06/07 12:42:58;;;;;;;5.60;4.88;;;21.30;60.60;;;;;;4937488;29;20038;-81
2022/06/07 12:45:33;;;;;;;5.47;4.80;;;21.40;60.50;;;;;;4937382;29;20046;-81
2022/06/07 12:48:13;;;;;;;6.13;5.00;;;21.40;60.50;;;;;;4939050;29;20082;-81
2022/06/07 12:50:42;;;;;;;5.28;4.78;;;21.40;60.50;;;;;;4939376;29;20079;-81
2022/06/07 12:53:18;;;;;;;5.13;4.55;;;21.50;60.40;;;;;;4957151;28;20020;-81
2022/06/07 12:55:56;;;;;;;6.13;4.72;;;21.50;60.50;;;;;;4942729;29;20102;-82
2022/06/07 12:58:28;;;;;;;4.85;3.90;;;21.50;60.40;;;;;;4952946;29;20046;-81
2022/06/07 13:00:55;;;;;;;5.22;4.47;;;21.60;60.30;;;;;;4952101;29;20032;-83
2022/06/07 13:03:27;;;;;;;5.80;4.93;;;21.60;60.30;;;;;;4951288;29;20026;-82
2022/06/07 13:06:06;;;;;;;5.45;4.47;;;21.70;60.40;;;;;;4946869;29;20028;-82
2022/06/07 13:08:38;;;;;;;4.97;4.18;;;21.70;60.40;;;;;;4940363;29;20130;-81
2022/06/07 13:11:10;;;;;;;4.97;4.10;;;21.70;60.30;;;;;;4938839;29;20027;-82
2022/06/07 13:13:39;;;;;;;5.18;4.55;;;21.80;60.30;;;;;;4937987;29;20059;-81
2022/06/07 13:16:10;;;;;;;4.80;4.20;;;21.80;60.30;;;;;;4941202;29;20067;-81
2022/06/07 13:18:39;;;;;;;5.30;4.57;;;21.80;60.20;;;;;;4955535;29;20044;-80
2022/06/07 13:21:32;;;;;;;4.70;3.88;;;21.90;60.20;;;;;;4940815;29;20020;-81
2022/06/07 13:23:59;;;;;;;4.97;4.07;;;21.90;60.30;;;;;;4940105;29;20034;-82
2022/06/07 13:26:25;;;;;;;4.57;4.03;;;22.00;60.10;;;;;;4940452;29;20054;-82
2022/06/07 13:29:12;;;;;;;4.65;4.00;;;22.00;60.10;;;;;;4957708;29;20032;-83
2022/06/07 13:31:41;;;;;;;4.47;3.45;;;22.00;60.20;;;;;;4956403;29;20380;-83
2022/06/07 13:34:21;;;;;;;5.18;4.05;;;22.10;60.00;;;;;;4940714;29;20028;-82
2022/06/07 13:37:07;;;;;;;5.45;4.15;;;22.10;60.10;;;;;;4956552;29;20051;-83
2022/06/07 13:39:36;;;;;;;5.65;4.20;;;22.10;60.00;;;;;;4934013;28;20055;-81